sensor_id;sensor_type;location;lat;lon;timestamp;pressure;altitude;pressure_sealevel;temperature;humidity
58622;BME280;44389;51.578;5.456;2023-03-25T00:02:13;100115.94;;;7.99;100.00
58622;BME280;44389;51.578;5.456;2023-03-25T00:04:38;100113.34;;;7.97;100.00
58622;BME280;44389;51.578;5.456;2023-03-25T00:07:04;100103.13;;;7.99;100.00
58622;BME280;44389;51.578;5.456;2023-03-25T00:09:30;100098.91;;;8.01;100.00
58622;BME280;44389;51.578;5.456;2023-03-25T00:11:56;100109.16;;;7.99;100.00
58622;BME280;44389;51.578;5.456;2023-03-25T00:14:21;100116.91;;;8.02;100.00
58622;BME280;44389;51.578;5.456;2023-03-25T00:16:48;100106.69;;;8.04;100.00
58622;BME280;44389;51.578;5.456;2023-03-25T00:19:17;100117.00;;;8.05;100.00
58622;BME280;44389;51.578;5.456;2023-03-25T00:21:42;100109.25;;;8.04;100.00
58622;BME280;44389;51.578;5.456;2023-03-25T00:24:10;100117.94;;;8.09;100.00
58622;BME280;44389;51.578;5.456;2023-03-25T00:26:45;100109.25;;;8.04;100.00
58622;BME280;44389;51.578;5.456;2023-03-25T00:29:13;100106.63;;;8.01;99.90
58622;BME280;44389;51.578;5.456;2023-03-25T00:31:39;100114.22;;;7.98;99.88
58622;BME280;44389;51.578;5.456;2023-03-25T00:34:05;100101.38;;;7.98;99.20
58622;BME280;44389;51.578;5.456;2023-03-25T00:36:30;100101.44;;;7.99;98.54
58622;BME280;44389;51.578;5.456;2023-03-25T00:38:55;100096.31;;;7.99;98.55
58622;BME280;44389;51.578;5.456;2023-03-25T00:41:23;100114.31;;;8.01;97.49
58622;BME280;44389;51.578;5.456;2023-03-25T00:43:57;100107.44;;;8.00;97.94
58622;BME280;44389;51.578;5.456;2023-03-25T00:46:24;100108.28;;;8.00;97.22
58622;BME280;44389;51.578;5.456;2023-03-25T00:48:51;100114.31;;;8.01;97.63
58622;BME280;44389;51.578;5.456;2023-03-25T00:51:17;100105.78;;;8.02;97.11
58622;BME280;44389;51.578;5.456;2023-03-25T00:53:46;100110.00;;;8.00;97.14
58622;BME280;44389;51.578;5.456;2023-03-25T00:56:12;100102.22;;;7.97;97.76
58622;BME280;44389;51.578;5.456;2023-03-25T00:58:37;100114.97;;;7.94;98.15
58622;BME280;44389;51.578;5.456;2023-03-25T01:01:17;100106.41;;;7.93;98.59
58622;BME280;44389;51.578;5.456;2023-03-25T01:03:48;100102.06;;;7.90;98.54
58622;BME280;44389;51.578;5.456;2023-03-25T01:06:15;100105.44;;;7.89;98.46
58622;BME280;44389;51.578;5.456;2023-03-25T01:08:42;100114.06;;;7.91;98.05
58622;BME280;44389;51.578;5.456;2023-03-25T01:11:17;100108.00;;;7.89;99.04
58622;BME280;44389;51.578;5.456;2023-03-25T01:13:43;100108.03;;;7.91;98.99
58622;BME280;44389;51.578;5.456;2023-03-25T01:16:10;100107.94;;;7.86;99.21
58622;BME280;44389;51.578;5.456;2023-03-25T01:18:36;100114.75;;;7.86;99.62
58622;BME280;44389;51.578;5.456;2023-03-25T01:21:06;100107.00;;;7.84;99.27
58622;BME280;44389;51.578;5.456;2023-03-25T01:23:32;100108.63;;;7.82;99.81
58622;BME280;44389;51.578;5.456;2023-03-25T01:25:58;100098.38;;;7.82;99.58
58622;BME280;44389;51.578;5.456;2023-03-25T01:28:23;100109.50;;;7.81;99.77
58622;BME280;44389;51.578;5.456;2023-03-25T01:30:49;100099.16;;;7.80;99.77
58622;BME280;44389;51.578;5.456;2023-03-25T01:33:14;100097.44;;;7.79;99.88
58622;BME280;44389;51.578;5.456;2023-03-25T01:35:41;100101.69;;;7.78;100.00
58622;BME280;44389;51.578;5.456;2023-03-25T01:38:06;100106.75;;;7.75;100.00
58622;BME280;44389;51.578;5.456;2023-03-25T01:40:32;100117.75;;;7.71;100.00
58622;BME280;44389;51.578;5.456;2023-03-25T01:42:58;100104.00;;;7.69;100.00
58622;BME280;44389;51.578;5.456;2023-03-25T01:45:29;100112.47;;;7.66;100.00
58622;BME280;44389;51.578;5.456;2023-03-25T01:48:00;100108.81;;;7.58;100.00
58622;BME280;44389;51.578;5.456;2023-03-25T01:50:27;100117.91;;;7.48;100.00
58622;BME280;44389;51.578;5.456;2023-03-25T01:52:55;100115.94;;;7.39;100.00
58622;BME280;44389;51.578;5.456;2023-03-25T01:55:21;100112.31;;;7.33;100.00
58622;BME280;44389;51.578;5.456;2023-03-25T01:57:48;100101.00;;;7.26;100.00
58622;BME280;44389;51.578;5.456;2023-03-25T02:00:18;100099.06;;;7.19;100.00
58622;BME280;44389;51.578;5.456;2023-03-25T02:02:45;100092.97;;;7.15;100.00
58622;BME280;44389;51.578;5.456;2023-03-25T02:05:17;100095.44;;;7.12;100.00
58622;BME280;44389;51.578;5.456;2023-03-25T02:07:45;100092.81;;;7.09;100.00
58622;BME280;44389;51.578;5.456;2023-03-25T02:10:13;100096.31;;;7.13;100.00
58622;BME280;44389;51.578;5.456;2023-03-25T02:12:39;100090.31;;;7.12;100.00
58622;BME280;44389;51.578;5.456;2023-03-25T02:15:07;100081.88;;;7.15;100.00
58622;BME280;44389;51.578;5.456;2023-03-25T02:17:59;100091.34;;;7.17;100.00
58622;BME280;44389;51.578;5.456;2023-03-25T02:21:04;100074.22;;;7.16;100.00
58622;BME280;44389;51.578;5.456;2023-03-25T02:29:34;100097.47;;;6.95;100.00
58622;BME280;44389;51.578;5.456;2023-03-25T02:40:41;100090.38;;;6.86;100.00
58622;BME280;44389;51.578;5.456;2023-03-25T02:43:19;100091.13;;;6.84;100.00
58622;BME280;44389;51.578;5.456;2023-03-25T02:45:50;100079.16;;;6.83;100.00
58622;BME280;44389;51.578;5.456;2023-03-25T02:48:20;100081.81;;;6.86;100.00
58622;BME280;44389;51.578;5.456;2023-03-25T02:50:51;100086.91;;;6.84;100.00
58622;BME280;44389;51.578;5.456;2023-03-25T02:53:22;100070.88;;;6.91;100.00
58622;BME280;44389;51.578;5.456;2023-03-25T02:55:50;100078.69;;;6.95;100.00
58622;BME280;44389;51.578;5.456;2023-03-25T02:58:18;100068.56;;;6.99;100.00
58622;BME280;44389;51.578;5.456;2023-03-25T03:00:47;100067.75;;;7.00;100.00
58622;BME280;44389;51.578;5.456;2023-03-25T03:03:13;100079.72;;;7.00;100.00
58622;BME280;44389;51.578;5.456;2023-03-25T03:05:44;100079.63;;;6.98;100.00
58622;BME280;44389;51.578;5.456;2023-03-25T03:16:54;100077.59;;;6.88;100.00
58622;BME280;44389;51.578;5.456;2023-03-25T03:20:08;100074.19;;;6.87;100.00
58622;BME280;44389;51.578;5.456;2023-03-25T03:22:32;100072.19;;;6.79;100.00
58622;BME280;44389;51.578;5.456;2023-03-25T03:28:02;100074.50;;;6.71;100.00
58622;BME280;44389;51.578;5.456;2023-03-25T03:30:50;100065.78;;;6.66;100.00
58622;BME280;44389;51.578;5.456;2023-03-25T03:33:23;100074.19;;;6.62;100.00
58622;BME280;44389;51.578;5.456;2023-03-25T03:35:54;100077.56;;;6.61;100.00
58622;BME280;44389;51.578;5.456;2023-03-25T03:38:24;100073.28;;;6.59;100.00
58622;BME280;44389;51.578;5.456;2023-03-25T03:40:59;100072.56;;;6.64;100.00
58622;BME280;44389;51.578;5.456;2023-03-25T03:46:05;100069.25;;;6.66;100.00
58622;BME280;44389;51.578;5.456;2023-03-25T03:48:47;100071.03;;;6.69;100.00
58622;BME280;44389;51.578;5.456;2023-03-25T03:51:20;100072.81;;;6.71;100.00
58622;BME280;44389;51.578;5.456;2023-03-25T03:54:02;100072.09;;;6.75;100.00
58622;BME280;44389;51.578;5.456;2023-03-25T03:59:06;100059.34;;;6.77;100.00
58622;BME280;44389;51.578;5.456;2023-03-25T04:01:40;100065.31;;;6.78;100.00
58622;BME280;44389;51.578;5.456;2023-03-25T04:04:13;100067.06;;;6.79;100.00
58622;BME280;44389;51.578;5.456;2023-03-25T04:06:59;100067.84;;;6.76;100.00
58622;BME280;44389;51.578;5.456;2023-03-25T04:12:28;100073.88;;;6.78;100.00
58622;BME280;44389;51.578;5.456;2023-03-25T04:14:59;100062.91;;;6.82;100.00
58622;BME280;44389;51.578;5.456;2023-03-25T04:17:25;100064.66;;;6.83;100.00
58622;BME280;44389;51.578;5.456;2023-03-25T04:19:54;100051.94;;;6.86;100.00
58622;BME280;44389;51.578;5.456;2023-03-25T04:22:20;100053.72;;;6.89;100.00
58622;BME280;44389;51.578;5.456;2023-03-25T04:24:46;100045.19;;;6.88;100.00
58622;BME280;44389;51.578;5.456;2023-03-25T04:27:15;100058.97;;;6.92;100.00
58622;BME280;44389;51.578;5.456;2023-03-25T04:29:41;100071.81;;;6.94;100.00
58622;BME280;44389;51.578;5.456;2023-03-25T04:32:08;100078.69;;;6.95;100.00
58622;BME280;44389;51.578;5.456;2023-03-25T04:34:34;100061.66;;;6.97;100.00
58622;BME280;44389;51.578;5.456;2023-03-25T04:37:00;100068.53;;;6.98;100.00
58622;BME280;44389;51.578;5.456;2023-03-25T04:39:26;100063.38;;;6.96;100.00
58622;BME280;44389;51.578;5.456;2023-03-25T04:41:54;100071.81;;;6.94;100.00
58622;BME280;44389;51.578;5.456;2023-03-25T04:44:21;100085.34;;;6.89;100.00
58622;BME280;44389;51.578;5.456;2023-03-25T04:46:47;100082.63;;;6.85;100.00
58622;BME280;44389;51.578;5.456;2023-03-25T04:49:20;100064.53;;;6.80;100.00
58622;BME280;44389;51.578;5.456;2023-03-25T04:51:47;100084.22;;;6.81;100.00
58622;BME280;44389;51.578;5.456;2023-03-25T04:54:18;100076.44;;;6.78;100.00
58622;BME280;44389;51.578;5.456;2023-03-25T04:56:43;100073.78;;;6.75;100.00
58622;BME280;44389;51.578;5.456;2023-03-25T04:59:08;100071.13;;;6.72;100.00
58622;BME280;44389;51.578;5.456;2023-03-25T05:01:35;100081.19;;;6.67;100.00
58622;BME280;44389;51.578;5.456;2023-03-25T05:04:03;100069.94;;;6.62;100.00
58622;BME280;44389;51.578;5.456;2023-03-25T05:06:33;100070.63;;;6.56;100.00
58622;BME280;44389;51.578;5.456;2023-03-25T05:09:00;100081.66;;;6.55;100.00
58622;BME280;44389;51.578;5.456;2023-03-25T05:11:29;100079.94;;;6.54;100.00
58622;BME280;44389;51.578;5.456;2023-03-25T05:13:54;100081.66;;;6.55;100.00
58622;BME280;44389;51.578;5.456;2023-03-25T05:16:20;100082.47;;;6.54;100.00
58622;BME280;44389;51.578;5.456;2023-03-25T05:18:46;100080.66;;;6.50;100.00
58622;BME280;44389;51.578;5.456;2023-03-25T05:21:11;100076.28;;;6.48;100.00
58622;BME280;44389;51.578;5.456;2023-03-25T05:23:37;100090.66;;;6.44;100.00
58622;BME280;44389;51.578;5.456;2023-03-25T05:26:03;100094.94;;;6.43;100.00
58622;BME280;44389;51.578;5.456;2023-03-25T05:28:28;100092.31;;;6.42;100.00
58622;BME280;44389;51.578;5.456;2023-03-25T05:30:54;100088.06;;;6.42;100.00
58622;BME280;44389;51.578;5.456;2023-03-25T05:33:20;100089.78;;;6.42;100.00
58622;BME280;44389;51.578;5.456;2023-03-25T05:35:45;100087.28;;;6.45;100.00
58622;BME280;44389;51.578;5.456;2023-03-25T05:38:12;100098.53;;;6.49;100.00
58622;BME280;44389;51.578;5.456;2023-03-25T05:40:40;100089.13;;;6.49;100.00
58622;BME280;44389;51.578;5.456;2023-03-25T05:43:06;100084.97;;;6.51;100.00
58622;BME280;44389;51.578;5.456;2023-03-25T05:45:32;100088.50;;;6.55;100.00
58622;BME280;44389;51.578;5.456;2023-03-25T05:48:00;100091.19;;;6.59;100.00
58622;BME280;44389;51.578;5.456;2023-03-25T05:50:25;100097.19;;;6.60;100.00
58622;BME280;44389;51.578;5.456;2023-03-25T05:52:53;100092.13;;;6.62;100.00
58622;BME280;44389;51.578;5.456;2023-03-25T05:55:21;100088.75;;;6.63;100.00
58622;BME280;44389;51.578;5.456;2023-03-25T05:57:47;100098.19;;;6.64;100.00
58622;BME280;44389;51.578;5.456;2023-03-25T06:00:14;100099.81;;;6.62;100.00
58622;BME280;44389;51.578;5.456;2023-03-25T06:02:40;100106.00;;;6.68;100.00
58622;BME280;44389;51.578;5.456;2023-03-25T06:05:08;100118.84;;;6.70;100.00
58622;BME280;44389;51.578;5.456;2023-03-25T06:07:34;100124.84;;;6.70;100.00
58622;BME280;44389;51.578;5.456;2023-03-25T06:10:02;100126.59;;;6.71;100.00
58622;BME280;44389;51.578;5.456;2023-03-25T06:12:28;100123.09;;;6.69;100.00
58622;BME280;44389;51.578;5.456;2023-03-25T06:14:56;100117.13;;;6.69;100.00
58622;BME280;44389;51.578;5.456;2023-03-25T06:17:22;100114.56;;;6.69;100.00
58622;BME280;44389;51.578;5.456;2023-03-25T06:19:48;100105.94;;;6.67;100.00
58622;BME280;44389;51.578;5.456;2023-03-25T06:22:13;100124.81;;;6.69;100.00
58622;BME280;44389;51.578;5.456;2023-03-25T06:24:40;100121.47;;;6.71;100.00
58622;BME280;44389;51.578;5.456;2023-03-25T06:27:11;100107.94;;;6.75;100.00
58622;BME280;44389;51.578;5.456;2023-03-25T06:29:36;100120.81;;;6.77;100.00
58622;BME280;44389;51.578;5.456;2023-03-25T06:32:06;100111.63;;;6.84;100.00
58622;BME280;44389;51.578;5.456;2023-03-25T06:34:32;100109.22;;;6.88;100.00
58622;BME280;44389;51.578;5.456;2023-03-25T06:36:58;100115.25;;;6.90;100.00
58622;BME280;44389;51.578;5.456;2023-03-25T06:39:24;100117.16;;;6.96;100.00
58622;BME280;44389;51.578;5.456;2023-03-25T06:41:49;100118.22;;;7.03;100.00
58622;BME280;44389;51.578;5.456;2023-03-25T06:44:15;100133.03;;;7.12;100.00
58622;BME280;44389;51.578;5.456;2023-03-25T06:46:41;100135.88;;;7.21;100.00
58622;BME280;44389;51.578;5.456;2023-03-25T06:49:06;100117.25;;;7.27;100.00
58622;BME280;44389;51.578;5.456;2023-03-25T06:51:32;100143.91;;;7.32;100.00
58622;BME280;44389;51.578;5.456;2023-03-25T06:53:57;100142.25;;;7.34;100.00
58622;BME280;44389;51.578;5.456;2023-03-25T06:56:23;100137.22;;;7.37;100.00
58622;BME280;44389;51.578;5.456;2023-03-25T06:58:48;100139.00;;;7.39;100.00
58622;BME280;44389;51.578;5.456;2023-03-25T07:01:13;100145.91;;;7.42;100.00
58622;BME280;44389;51.578;5.456;2023-03-25T07:03:39;100135.78;;;7.45;100.00
58622;BME280;44389;51.578;5.456;2023-03-25T07:06:05;100137.59;;;7.49;100.00
58622;BME280;44389;51.578;5.456;2023-03-25T07:08:31;100134.28;;;7.52;100.00
58622;BME280;44389;51.578;5.456;2023-03-25T07:11:04;100136.84;;;7.52;100.00
58622;BME280;44389;51.578;5.456;2023-03-25T07:13:31;100132.69;;;7.55;100.00
58622;BME280;44389;51.578;5.456;2023-03-25T07:15:57;100135.25;;;7.55;100.00
58622;BME280;44389;51.578;5.456;2023-03-25T07:18:23;100131.03;;;7.59;100.00
58622;BME280;44389;51.578;5.456;2023-03-25T07:20:48;100135.69;;;7.71;100.00
58622;BME280;44389;51.578;5.456;2023-03-25T07:23:14;100137.47;;;7.73;100.00
58622;BME280;44389;51.578;5.456;2023-03-25T07:25:40;100139.13;;;7.71;100.00
58622;BME280;44389;51.578;5.456;2023-03-25T07:28:05;100138.69;;;7.57;100.00
58622;BME280;44389;51.578;5.456;2023-03-25T07:30:31;100132.31;;;7.45;100.00
58622;BME280;44389;51.578;5.456;2023-03-25T07:32:56;100145.03;;;7.40;100.00
58622;BME280;44389;51.578;5.456;2023-03-25T07:35:21;100153.34;;;7.33;100.00
58622;BME280;44389;51.578;5.456;2023-03-25T07:37:47;100149.66;;;7.24;100.00
58622;BME280;44389;51.578;5.456;2023-03-25T07:40:12;100144.34;;;7.18;100.00
58622;BME280;44389;51.578;5.456;2023-03-25T07:42:37;100152.75;;;7.14;100.00
58622;BME280;44389;51.578;5.456;2023-03-25T07:45:04;100153.41;;;7.08;100.00
58622;BME280;44389;51.578;5.456;2023-03-25T07:47:29;100154.31;;;7.09;100.00
58622;BME280;44389;51.578;5.456;2023-03-25T07:49:55;100153.44;;;7.10;100.00
58622;BME280;44389;51.578;5.456;2023-03-25T07:52:20;100153.63;;;7.15;100.00
58622;BME280;44389;51.578;5.456;2023-03-25T07:54:45;100161.34;;;7.16;100.00
58622;BME280;44389;51.578;5.456;2023-03-25T07:57:11;100162.28;;;7.18;100.00
58622;BME280;44389;51.578;5.456;2023-03-25T07:59:37;100170.81;;;7.19;100.00
58622;BME280;44389;51.578;5.456;2023-03-25T08:02:02;100170.88;;;7.20;100.00
58622;BME280;44389;51.578;5.456;2023-03-25T08:04:28;100164.19;;;7.25;100.00
58622;BME280;44389;51.578;5.456;2023-03-25T08:06:54;100163.50;;;7.30;100.00
58622;BME280;44389;51.578;5.456;2023-03-25T08:09:19;100172.38;;;7.41;100.00
58622;BME280;44389;51.578;5.456;2023-03-25T08:11:46;100179.44;;;7.48;100.00
58622;BME280;44389;51.578;5.456;2023-03-25T08:14:12;100177.91;;;7.53;100.00
58622;BME280;44389;51.578;5.456;2023-03-25T08:16:37;100183.84;;;7.52;100.00
58622;BME280;44389;51.578;5.456;2023-03-25T08:19:02;100185.56;;;7.52;100.00
58622;BME280;44389;51.578;5.456;2023-03-25T08:21:28;100189.78;;;7.51;100.00
58622;BME280;44389;51.578;5.456;2023-03-25T08:23:54;100194.78;;;7.47;100.00
58622;BME280;44389;51.578;5.456;2023-03-25T08:26:28;100193.91;;;7.46;100.00
58622;BME280;44389;51.578;5.456;2023-03-25T08:28:56;100195.75;;;7.50;100.00
58622;BME280;44389;51.578;5.456;2023-03-25T08:31:23;100188.13;;;7.52;100.00
58622;BME280;44389;51.578;5.456;2023-03-25T08:33:49;100198.38;;;7.52;100.00
58622;BME280;44389;51.578;5.456;2023-03-25T08:36:15;100208.63;;;7.52;100.00
58622;BME280;44389;51.578;5.456;2023-03-25T08:38:44;100207.81;;;7.53;100.00
58622;BME280;44389;51.578;5.456;2023-03-25T08:41:10;100200.44;;;7.64;100.00
58622;BME280;44389;51.578;5.456;2023-03-25T08:43:35;100214.47;;;7.75;100.00
58622;BME280;44389;51.578;5.456;2023-03-25T08:46:00;100196.47;;;7.73;100.00
58622;BME280;44389;51.578;5.456;2023-03-25T08:48:26;100198.97;;;7.72;100.00
58622;BME280;44389;51.578;5.456;2023-03-25T08:50:51;100189.66;;;7.74;100.00
58622;BME280;44389;51.578;5.456;2023-03-25T08:53:17;100204.19;;;7.73;100.00
58622;BME280;44389;51.578;5.456;2023-03-25T08:55:42;100198.19;;;7.74;100.00
58622;BME280;44389;51.578;5.456;2023-03-25T08:58:08;100206.03;;;7.79;100.00
58622;BME280;44389;51.578;5.456;2023-03-25T09:00:34;100203.72;;;7.87;100.00
58622;BME280;44389;51.578;5.456;2023-03-25T09:03:02;100196.25;;;7.95;100.00
58622;BME280;44389;51.578;5.456;2023-03-25T09:05:31;100196.44;;;8.01;100.00
58622;BME280;44389;51.578;5.456;2023-03-25T09:07:56;100188.38;;;8.17;100.00
58622;BME280;44389;51.578;5.456;2023-03-25T09:10:22;100188.94;;;8.39;100.00
58622;BME280;44389;51.578;5.456;2023-03-25T09:12:47;100189.69;;;8.65;100.00
58622;BME280;44389;51.578;5.456;2023-03-25T09:15:12;100197.09;;;8.86;100.00
58622;BME280;44389;51.578;5.456;2023-03-25T09:17:38;100183.81;;;9.03;100.00
58622;BME280;44389;51.578;5.456;2023-03-25T09:20:04;100188.56;;;9.22;100.00
58622;BME280;44389;51.578;5.456;2023-03-25T09:22:33;100181.91;;;9.31;100.00
58622;BME280;44389;51.578;5.456;2023-03-25T09:24:58;100197.00;;;9.52;100.00
58622;BME280;44389;51.578;5.456;2023-03-25T09:27:24;100198.81;;;9.58;100.00
58622;BME280;44389;51.578;5.456;2023-03-25T09:29:49;100186.25;;;9.70;100.00
58622;BME280;44389;51.578;5.456;2023-03-25T09:32:15;100205.88;;;9.65;99.19
58622;BME280;44389;51.578;5.456;2023-03-25T09:34:42;100197.38;;;9.69;98.84
58622;BME280;44389;51.578;5.456;2023-03-25T09:37:08;100194.47;;;9.92;98.31
58622;BME280;44389;51.578;5.456;2023-03-25T09:39:33;100191.56;;;10.17;96.19
58622;BME280;44389;51.578;5.456;2023-03-25T09:47:30;100195.25;;;9.89;97.69
58622;BME280;44389;51.578;5.456;2023-03-25T09:50:00;100196.31;;;9.99;95.60
58622;BME280;44389;51.578;5.456;2023-03-25T09:55:20;100210.50;;;10.21;95.44
58622;BME280;44389;51.578;5.456;2023-03-25T09:57:50;100207.66;;;10.07;93.11
58622;BME280;44389;51.578;5.456;2023-03-25T10:00:22;100205.41;;;10.23;94.41
58622;BME280;44389;51.578;5.456;2023-03-25T10:03:05;100219.16;;;10.25;93.16
58622;BME280;44389;51.578;5.456;2023-03-25T10:05:51;100215.16;;;10.37;92.46
58622;BME280;44389;51.578;5.456;2023-03-25T10:11:06;100221.06;;;9.92;95.42
58622;BME280;44389;51.578;5.456;2023-03-25T10:16:46;100223.16;;;9.72;97.31
58622;BME280;44389;51.578;5.456;2023-03-25T10:19:36;100213.63;;;9.30;100.00
58622;BME280;44389;51.578;5.456;2023-03-25T10:22:16;100233.50;;;9.03;100.00
58622;BME280;44389;51.578;5.456;2023-03-25T10:27:40;100221.75;;;8.80;100.00
58622;BME280;44389;51.578;5.456;2023-03-25T10:30:17;100223.13;;;8.67;100.00
58622;BME280;44389;51.578;5.456;2023-03-25T10:32:46;100248.56;;;8.57;100.00
58622;BME280;44389;51.578;5.456;2023-03-25T10:35:27;100235.47;;;8.48;100.00
58622;BME280;44389;51.578;5.456;2023-03-25T10:37:57;100228.97;;;8.32;100.00
58622;BME280;44389;51.578;5.456;2023-03-25T10:40:26;100239.16;;;8.28;100.00
58622;BME280;44389;51.578;5.456;2023-03-25T10:42:58;100235.72;;;8.29;100.00
58622;BME280;44389;51.578;5.456;2023-03-25T10:45:29;100239.28;;;8.34;100.00
58622;BME280;44389;51.578;5.456;2023-03-25T10:48:03;100233.34;;;8.35;100.00
58622;BME280;44389;51.578;5.456;2023-03-25T10:50:30;100243.72;;;8.38;100.00
58622;BME280;44389;51.578;5.456;2023-03-25T10:52:55;100249.22;;;8.50;100.00
58622;BME280;44389;51.578;5.456;2023-03-25T10:55:27;100237.63;;;8.65;100.00
58622;BME280;44389;51.578;5.456;2023-03-25T10:57:56;100235.38;;;8.76;100.00
58622;BME280;44389;51.578;5.456;2023-03-25T11:00:22;100238.94;;;8.81;100.00
58622;BME280;44389;51.578;5.456;2023-03-25T11:02:50;100239.97;;;8.87;100.00
58622;BME280;44389;51.578;5.456;2023-03-25T11:05:22;100236.25;;;9.10;100.00
58622;BME280;44389;51.578;5.456;2023-03-25T11:07:51;100230.75;;;9.31;99.79
58622;BME280;44389;51.578;5.456;2023-03-25T11:10:27;100238.91;;;9.48;94.11
58622;BME280;44389;51.578;5.456;2023-03-25T11:12:54;100228.03;;;9.60;92.42
58622;BME280;44389;51.578;5.456;2023-03-25T11:15:30;100236.88;;;9.71;91.67
58622;BME280;44389;51.578;5.456;2023-03-25T11:18:15;100252.75;;;9.89;86.52
58622;BME280;44389;51.578;5.456;2023-03-25T11:20:47;100252.00;;;10.35;87.44
58622;BME280;44389;51.578;5.456;2023-03-25T11:23:21;100255.34;;;10.70;83.95
58622;BME280;44389;51.578;5.456;2023-03-25T11:25:48;100242.81;;;10.92;81.48
58622;BME280;44389;51.578;5.456;2023-03-25T11:28:35;100254.75;;;10.85;80.77
58622;BME280;44389;51.578;5.456;2023-03-25T11:33:38;100269.28;;;10.39;79.70
58622;BME280;44389;51.578;5.456;2023-03-25T11:36:23;100267.47;;;10.35;80.99
58622;BME280;44389;51.578;5.456;2023-03-25T11:38:57;100269.00;;;10.27;82.11
58622;BME280;44389;51.578;5.456;2023-03-25T11:41:26;100269.16;;;10.33;81.40
58622;BME280;44389;51.578;5.456;2023-03-25T11:43:53;100256.19;;;10.30;81.54
58622;BME280;44389;51.578;5.456;2023-03-25T11:46:20;100248.41;;;10.27;84.05
58622;BME280;44389;51.578;5.456;2023-03-25T11:48:47;100257.56;;;10.14;82.88
58622;BME280;44389;51.578;5.456;2023-03-25T11:51:15;100261.00;;;10.14;82.83
58622;BME280;44389;51.578;5.456;2023-03-25T11:53:46;100259.63;;;9.91;84.44
58622;BME280;44389;51.578;5.456;2023-03-25T11:56:16;100262.28;;;9.94;85.83
58622;BME280;44389;51.578;5.456;2023-03-25T11:58:46;100253.91;;;10.04;84.44
58622;BME280;44389;51.578;5.456;2023-03-25T12:01:20;100246.53;;;10.19;83.64
58622;BME280;44389;51.578;5.456;2023-03-25T12:03:47;100251.03;;;10.30;80.96
58622;BME280;44389;51.578;5.456;2023-03-25T12:08:59;100258.06;;;10.78;80.60
58622;BME280;44389;51.578;5.456;2023-03-25T12:16:47;100257.41;;;10.89;79.54
58622;BME280;44389;51.578;5.456;2023-03-25T12:19:24;100264.28;;;10.47;81.92
58622;BME280;44389;51.578;5.456;2023-03-25T12:24:50;100299.13;;;9.22;95.21
58622;BME280;44389;51.578;5.456;2023-03-25T12:35:46;100271.16;;;10.46;93.06
58622;BME280;44389;51.578;5.456;2023-03-25T12:40:54;100255.66;;;10.87;92.04
58622;BME280;44389;51.578;5.456;2023-03-25T12:43:35;100252.59;;;10.63;93.07
58622;BME280;44389;51.578;5.456;2023-03-25T12:49:00;100243.88;;;11.02;91.73
58622;BME280;44389;51.578;5.456;2023-03-25T12:51:59;100241.69;;;10.76;92.09
58622;BME280;44389;51.578;5.456;2023-03-25T12:54:36;100253.44;;;10.62;92.30
58622;BME280;44389;51.578;5.456;2023-03-25T13:08:45;100260.13;;;12.70;79.66
58622;BME280;44389;51.578;5.456;2023-03-25T13:11:19;100255.53;;;12.45;78.86
58622;BME280;44389;51.578;5.456;2023-03-25T13:13:48;100269.75;;;12.12;79.61
58622;BME280;44389;51.578;5.456;2023-03-25T13:16:18;100260.38;;;11.62;79.65
58622;BME280;44389;51.578;5.456;2023-03-25T13:19:00;100272.78;;;11.31;82.28
58622;BME280;44389;51.578;5.456;2023-03-25T13:21:37;100260.03;;;10.92;85.86
58622;BME280;44389;51.578;5.456;2023-03-25T13:24:09;100264.59;;;10.61;89.86
58622;BME280;44389;51.578;5.456;2023-03-25T13:26:39;100271.94;;;10.42;89.32
58622;BME280;44389;51.578;5.456;2023-03-25T13:29:24;100274.44;;;10.39;90.51
58622;BME280;44389;51.578;5.456;2023-03-25T13:31:53;100262.31;;;10.35;88.26
58622;BME280;44389;51.578;5.456;2023-03-25T13:34:37;100275.19;;;10.35;86.35
58622;BME280;44389;51.578;5.456;2023-03-25T13:37:25;100271.41;;;10.17;88.62
58622;BME280;44389;51.578;5.456;2023-03-25T13:40:02;100265.31;;;10.15;88.48
58622;BME280;44389;51.578;5.456;2023-03-25T13:42:44;100266.16;;;10.14;88.16
58622;BME280;44389;51.578;5.456;2023-03-25T13:45:20;100265.03;;;10.03;88.99
58622;BME280;44389;51.578;5.456;2023-03-25T13:48:11;100279.81;;;10.10;89.64
58622;BME280;44389;51.578;5.456;2023-03-25T13:50:37;100268.72;;;10.14;87.19
58622;BME280;44389;51.578;5.456;2023-03-25T13:53:16;100272.28;;;10.19;87.87
58622;BME280;44389;51.578;5.456;2023-03-25T13:55:55;100283.44;;;10.60;85.10
58622;BME280;44389;51.578;5.456;2023-03-25T13:58:38;100282.09;;;10.77;80.48
58622;BME280;44389;51.578;5.456;2023-03-25T14:07:41;100275.03;;;12.22;72.50
58622;BME280;44389;51.578;5.456;2023-03-25T14:12:41;100294.78;;;12.15;69.27
58622;BME280;44389;51.578;5.456;2023-03-25T14:17:42;100274.56;;;12.54;67.42
58622;BME280;44389;51.578;5.456;2023-03-25T14:20:11;100272.66;;;12.37;66.81
58622;BME280;44389;51.578;5.456;2023-03-25T14:22:41;100271.00;;;12.42;68.02
58622;BME280;44389;51.578;5.456;2023-03-25T14:25:21;100276.66;;;12.82;69.01
58622;BME280;44389;51.578;5.456;2023-03-25T14:27:51;100272.41;;;12.91;64.32
58622;BME280;44389;51.578;5.456;2023-03-25T14:30:22;100283.59;;;12.87;63.56
58622;BME280;44389;51.578;5.456;2023-03-25T14:32:49;100279.94;;;12.69;62.71
58622;BME280;44389;51.578;5.456;2023-03-25T14:43:34;100293.91;;;12.16;63.99
58622;BME280;44389;51.578;5.456;2023-03-25T14:48:37;100301.47;;;12.02;66.91
58622;BME280;44389;51.578;5.456;2023-03-25T14:53:41;100303.78;;;12.46;67.93
58622;BME280;44389;51.578;5.456;2023-03-25T14:56:17;100299.44;;;12.42;65.17
58622;BME280;44389;51.578;5.456;2023-03-25T14:58:43;100288.09;;;12.31;62.70